Time;durP1;ratioP1;P1;durP2;ratioP2;P2;SDS_P1;SDS_P2;PMS_P1;PMS_P2;Temp;Humidity;BMP_temperature;BMP_pressure;BME280_temperature;BME280_humidity;BME280_pressure;Samples;Min_cycle;Max_cycle;Signal;HPM_P1;HPM_P2
2023/01/06 00:01:39;;;;;;;8.30;1.98;;;;;;;5.12;89.58;101543.69;7397030;19;20035;-73
2023/01/06 00:04:08;;;;;;;6.63;2.35;;;;;;;5.10;89.70;101536.72;7394852;19;20482;-73
2023/01/06 00:06:36;;;;;;;7.43;2.03;;;;;;;5.06;89.92;101531.44;7396208;19;20018;-72
2023/01/06 00:09:06;;;;;;;8.73;2.38;;;;;;;5.04;89.65;101530.56;7396225;19;20010;-72
2023/01/06 00:11:44;;;;;;;38.75;17.58;;;;;;;5.00;89.64;101539.16;7393806;19;20014;-73
2023/01/06 00:14:12;;;;;;;14.20;5.13;;;;;;;4.97;89.80;101536.53;7394753;19;20019;-73
2023/01/06 00:16:41;;;;;;;12.50;3.58;;;;;;;4.93;89.73;101539.97;7395838;19;20011;-72
2023/01/06 00:19:12;;;;;;;5.55;2.75;;;;;;;4.88;89.89;101534.69;7395497;19;20032;-72
2023/01/06 00:21:41;;;;;;;5.18;2.80;;;;;;;4.87;89.92;101540.72;7396020;19;20046;-72
2023/01/06 00:24:10;;;;;;;8.98;2.88;;;;;;;4.84;89.95;101539.81;7394009;19;20387;-72
2023/01/06 00:26:39;;;;;;;6.53;2.05;;;;;;;4.81;90.23;101542.38;7393884;19;20021;-73
2023/01/06 00:29:12;;;;;;;6.15;2.10;;;;;;;4.82;90.07;101544.13;7395118;19;20027;-73
2023/01/06 00:31:40;;;;;;;8.05;2.38;;;;;;;4.79;90.18;101541.47;7395954;19;20018;-73
2023/01/06 00:34:09;;;;;;;9.10;2.10;;;;;;;4.80;90.64;101540.63;7393702;19;20490;-72
2023/01/06 00:36:37;;;;;;;6.57;2.42;;;;;;;4.77;90.54;101533.66;7394950;19;20015;-71
2023/01/06 00:39:06;;;;;;;7.57;2.38;;;;;;;4.78;90.54;101538.00;7395458;19;20023;-71
2023/01/06 00:44:18;;;;;;;3.75;2.35;;;;;;;4.78;90.55;101530.19;7394382;19;20019;-72
2023/01/06 00:46:46;;;;;;;5.80;2.15;;;;;;;4.78;90.49;101535.41;7394831;19;20024;-71
2023/01/06 00:49:15;;;;;;;8.80;3.30;;;;;;;4.79;90.61;101534.56;7394619;19;20486;-72
2023/01/06 00:51:43;;;;;;;5.32;2.65;;;;;;;4.80;90.71;101532.81;7394452;19;20011;-72
2023/01/06 00:54:14;;;;;;;8.27;2.50;;;;;;;4.80;90.76;101525.03;7393047;19;20034;-72
2023/01/06 00:56:45;;;;;;;6.75;2.63;;;;;;;4.81;90.79;101526.78;7394391;19;20010;-72
2023/01/06 00:59:15;;;;;;;7.50;2.88;;;;;;;4.83;90.88;101530.28;7394418;19;20018;-72
2023/01/06 01:01:48;;;;;;;7.28;2.92;;;;;;;4.84;91.01;101527.69;7394607;19;20489;-73
2023/01/06 01:04:17;;;;;;;6.20;2.40;;;;;;;4.84;90.90;101525.09;7392807;19;20032;-73
2023/01/06 01:06:47;;;;;;;11.63;3.25;;;;;;;4.85;91.06;101518.16;7394133;19;20482;-72
2023/01/06 01:09:18;;;;;;;7.88;3.17;;;;;;;4.86;90.90;101527.72;7394337;19;20018;-72
2023/01/06 01:14:28;;;;;;;10.60;3.20;;;;;;;4.86;91.01;101520.78;7392685;19;20036;-72
2023/01/06 01:16:59;;;;;;;8.82;2.65;;;;;;;4.83;91.24;101519.88;7394103;19;20028;-73
2023/01/06 01:19:28;;;;;;;10.10;3.03;;;;;;;4.86;91.01;101525.09;7394652;19;20050;-72
2023/01/06 01:21:57;;;;;;;8.80;3.60;;;;;;;4.86;91.29;101522.50;7393712;19;20015;-72
2023/01/06 01:24:26;;;;;;;9.50;3.33;;;;;;;4.87;91.27;101516.47;7394607;19;20040;-72
2023/01/06 01:26:54;;;;;;;7.55;2.83;;;;;;;4.87;91.26;101514.72;7398783;19;20023;-72
2023/01/06 01:29:23;;;;;;;8.43;3.03;;;;;;;4.88;91.30;101513.00;7401450;19;20022;-72
2023/01/06 01:31:51;;;;;;;12.02;3.13;;;;;;;4.88;91.50;101519.06;7398251;19;20015;-72
2023/01/06 01:34:23;;;;;;;5.75;3.30;;;;;;;4.88;91.29;101518.22;7397913;19;20505;-72
2023/01/06 01:36:54;;;;;;;5.13;2.58;;;;;;;4.86;91.22;101512.09;7400865;19;20352;-72
2023/01/06 01:39:24;;;;;;;8.73;2.80;;;;;;;4.87;91.30;101516.47;7401574;19;20027;-72
2023/01/06 01:41:53;;;;;;;8.02;3.03;;;;;;;4.84;91.35;101517.28;7401322;19;20032;-72
2023/01/06 01:44:55;;;;;;;8.10;3.00;;;;;;;4.80;91.63;101515.50;7398808;19;20032;-73
2023/01/06 01:47:29;;;;;;;6.53;2.70;;;;;;;4.77;91.54;101512.84;7400371;19;20025;-72
2023/01/06 01:50:04;;;;;;;8.45;2.70;;;;;;;4.75;91.60;101508.47;7400490;19;20014;-72
2023/01/06 01:52:35;;;;;;;6.18;2.72;;;;;;;4.71;91.61;101495.44;7400519;19;20031;-72
2023/01/06 01:55:04;;;;;;;12.93;3.38;;;;;;;4.72;91.79;101497.16;7398831;19;20014;-72
2023/01/06 01:57:38;;;;;;;7.10;2.72;;;;;;;4.72;91.94;101504.09;7400107;19;20019;-72
2023/01/06 02:00:09;;;;;;;5.43;2.88;;;;;;;4.72;91.77;101504.09;7397819;19;20011;-72
2023/01/06 02:02:39;;;;;;;6.53;2.92;;;;;;;4.72;91.95;101502.38;7399688;19;20514;-72
2023/01/06 02:05:13;;;;;;;9.98;3.58;;;;;;;4.71;91.74;101494.56;7400739;19;20010;-72
2023/01/06 02:07:42;;;;;;;13.77;3.55;;;;;;;4.71;92.03;101495.44;7400375;19;20364;-72
2023/01/06 02:10:14;;;;;;;9.07;3.55;;;;;;;4.72;92.16;101486.78;7400041;19;20022;-72
2023/01/06 02:12:44;;;;;;;6.55;3.10;;;;;;;4.70;92.13;101482.41;7401340;19;20032;-72
2023/01/06 02:15:20;;;;;;;9.32;3.55;;;;;;;4.71;92.13;101479.84;7398350;19;20419;-72
2023/01/06 02:18:16;;;;;;;6.90;3.40;;;;;;;4.68;92.33;101474.59;7399970;19;20019;-72
2023/01/06 02:21:08;;;;;;;6.65;3.85;;;;;;;4.69;92.33;101471.16;7399497;19;20034;-72
2023/01/06 02:23:58;;;;;;;12.02;4.07;;;;;;;4.68;92.50;101472.00;7398721;19;20018;-72
2023/01/06 02:27:09;;;;;;;8.18;3.95;;;;;;;4.69;92.40;101472.88;7398037;19;20011;-73
2023/01/06 02:30:02;;;;;;;5.80;3.53;;;;;;;4.68;92.53;101465.94;7399466;19;20014;-72
2023/01/06 02:32:42;;;;;;;6.53;3.72;;;;;;;4.68;92.44;101466.78;7398861;19;20503;-72
2023/01/06 02:35:37;;;;;;;7.53;4.00;;;;;;;4.68;92.67;101464.19;7396255;19;20027;-72
2023/01/06 02:38:18;;;;;;;8.20;4.45;;;;;;;4.68;92.56;101458.13;7399646;19;20096;-72
2023/01/06 02:41:00;;;;;;;11.65;4.88;;;;;;;4.68;92.71;101463.34;7398704;19;20014;-72
2023/01/06 02:43:38;;;;;;;13.30;4.57;;;;;;;4.68;92.82;101464.19;7397649;19;20376;-72
2023/01/06 02:46:12;;;;;;;8.70;4.82;;;;;;;4.69;93.06;101459.88;7398475;19;20011;-72
2023/01/06 02:48:54;;;;;;;10.00;4.40;;;;;;;4.68;93.06;101461.59;7399295;19;20022;-72
2023/01/06 02:51:28;;;;;;;9.02;4.80;;;;;;;4.69;93.07;101458.16;7398345;19;20014;-71
2023/01/06 02:54:04;;;;;;;;;;;;;;;4.67;93.33;101457.25;7397501;19;20028;-72
2023/01/06 02:56:36;;;;;;;7.18;4.43;;;;;;;4.65;93.38;101448.56;7398142;19;19935;-71
2023/01/06 02:59:09;;;;;;;8.45;5.22;;;;;;;4.65;93.22;101438.19;7398073;19;20032;-72
2023/01/06 03:01:42;;;;;;;9.75;5.40;;;;;;;4.64;93.43;101440.72;7397984;19;20490;-72
2023/01/06 03:04:18;;;;;;;13.63;5.60;;;;;;;4.62;93.51;101432.91;7396401;19;20014;-71
2023/01/06 03:06:49;;;;;;;9.48;5.65;;;;;;;4.67;93.69;101440.78;7398552;19;20022;-72
2023/01/06 03:09:21;;;;;;;11.20;5.20;;;;;;;4.66;93.93;101437.31;7398382;19;20019;-72
2023/01/06 03:11:52;;;;;;;9.27;5.57;;;;;;;4.64;94.00;101436.41;7398440;19;20388;-71
2023/01/06 03:14:26;;;;;;;10.98;5.88;;;;;;;4.68;94.02;101438.19;7395949;19;20011;-72
2023/01/06 03:16:55;;;;;;;14.80;6.60;;;;;;;4.69;93.99;101426.97;7395978;19;20035;-72
2023/01/06 03:19:27;;;;;;;11.98;6.20;;;;;;;4.71;94.06;101416.56;7398163;19;20453;-71
2023/01/06 03:21:57;;;;;;;11.23;6.20;;;;;;;4.72;94.21;101411.38;7397339;19;20014;-72
2023/01/06 03:24:26;;;;;;;14.93;6.25;;;;;;;4.72;94.25;101411.38;7401863;19;20018;-72
2023/01/06 03:26:55;;;;;;;11.85;6.53;;;;;;;4.77;94.25;101411.47;7404048;19;20002;-72
2023/01/06 03:29:24;;;;;;;11.95;6.38;;;;;;;4.75;94.38;101387.16;7406862;19;20022;-72
2023/01/06 03:32:02;;;;;;;10.85;6.47;;;;;;;4.79;94.25;101401.97;7395923;19;20014;-72
2023/01/06 03:34:53;;;;;;;12.93;6.72;;;;;;;4.79;94.43;101393.28;7395672;19;20023;-72
2023/01/06 03:37:28;;;;;;;11.43;6.88;;;;;;;4.79;94.26;101401.97;7396666;19;20502;-72
2023/01/06 03:40:08;;;;;;;10.80;6.25;;;;;;;4.79;94.41;101388.06;7397545;19;20014;-72
2023/01/06 03:45:40;;;;;;;13.43;6.57;;;;;;;4.78;94.58;101388.91;7396776;19;20101;-72
2023/01/06 03:48:15;;;;;;;9.13;6.90;;;;;;;4.77;94.58;101385.47;7396329;19;20074;-72
2023/01/06 03:50:52;;;;;;;10.95;6.75;;;;;;;4.77;94.55;101379.41;7396447;19;20015;-73
2023/01/06 03:53:30;;;;;;;10.40;7.18;;;;;;;4.76;94.78;101377.66;7395496;19;20503;-72
2023/01/06 03:56:07;;;;;;;15.50;7.47;;;;;;;4.77;94.88;101377.66;7395035;19;20481;-72
2023/01/06 03:58:39;;;;;;;11.30;7.05;;;;;;;4.78;94.92;101382.00;7396072;19;20018;-72
2023/01/06 04:01:09;;;;;;;9.18;5.88;;;;;;;4.80;95.04;101369.91;7396478;19;20018;-73
2023/01/06 04:03:38;;;;;;;13.75;7.20;;;;;;;4.81;94.94;101368.19;7394970;19;20490;-72
2023/01/06 04:06:09;;;;;;;9.80;6.55;;;;;;;4.83;95.13;101359.53;7395742;19;20031;-72
2023/01/06 04:08:38;;;;;;;12.05;7.40;;;;;;;4.85;95.40;101351.75;7396046;19;20037;-72
2023/01/06 04:11:07;;;;;;;14.20;6.05;;;;;;;4.87;95.36;101355.25;7395434;19;20022;-72
2023/01/06 04:13:32;;;;;;;14.63;6.75;;;;;;;4.90;95.49;101357.88;7394505;19;20031;-73
2023/01/06 04:16:01;;;;;;;10.38;6.10;;;;;;;4.94;95.60;101357.06;7394862;19;20006;-72
2023/01/06 04:18:29;;;;;;;12.00;5.50;;;;;;;4.93;95.46;101352.72;7395459;19;20014;-72
2023/01/06 04:20:58;;;;;;;10.48;5.13;;;;;;;4.97;95.78;101356.25;7393846;19;20380;-73
2023/01/06 04:23:31;;;;;;;12.10;6.00;;;;;;;4.97;95.79;101338.88;7393941;19;20022;-73
2023/01/06 04:26:00;;;;;;;11.05;5.85;;;;;;;5.01;95.62;101351.06;7395101;19;20025;-72
2023/01/06 04:28:28;;;;;;;8.95;4.80;;;;;;;5.02;95.74;101338.94;7393385;19;20011;-72
2023/01/06 04:30:59;;;;;;;11.52;4.95;;;;;;;5.05;95.98;101341.56;7395532;19;20015;-72
2023/01/06 04:33:28;;;;;;;13.48;4.82;;;;;;;5.08;95.83;101338.13;7394217;19;20018;-72
2023/01/06 04:35:56;;;;;;;11.65;4.68;;;;;;;5.10;95.87;101336.44;7393746;19;20018;-73
2023/01/06 04:38:25;;;;;;;8.88;4.35;;;;;;;5.12;95.80;101332.09;7394767;19;20031;-72
2023/01/06 04:40:57;;;;;;;9.82;4.90;;;;;;;5.14;95.96;101330.41;7394731;19;20015;-73
2023/01/06 04:43:25;;;;;;;9.00;4.47;;;;;;;5.15;95.90;101335.59;7393922;19;20019;-72
2023/01/06 04:46:15;;;;;;;12.13;4.38;;;;;;;5.18;96.03;101324.34;7394429;19;20070;-72
2023/01/06 04:48:43;;;;;;;10.77;4.30;;;;;;;5.18;95.94;101330.44;7394668;19;20026;-72
2023/01/06 04:51:12;;;;;;;8.02;4.50;;;;;;;5.19;96.08;101323.50;7395277;19;20502;-72
2023/01/06 04:53:42;;;;;;;9.05;4.68;;;;;;;5.20;96.15;101322.66;7393738;19;20078;-72
2023/01/06 04:56:14;;;;;;;11.48;4.68;;;;;;;5.21;96.09;101319.19;7393347;19;20082;-72
2023/01/06 04:58:43;;;;;;;8.50;4.35;;;;;;;5.21;96.04;101306.19;7395704;19;20010;-72
2023/01/06 05:01:13;;;;;;;9.52;4.75;;;;;;;5.22;96.14;101294.94;7401756;19;20014;-72
2023/01/06 05:03:42;;;;;;;8.55;3.63;;;;;;;5.22;96.27;101292.34;7400138;19;20415;-73
2023/01/06 05:06:12;;;;;;;10.52;3.95;;;;;;;5.24;96.32;101298.41;7401790;19;20019;-72
2023/01/06 05:08:42;;;;;;;14.63;4.50;;;;;;;5.24;96.51;101290.59;7401443;19;20477;-73
2023/01/06 05:11:16;;;;;;;8.93;3.78;;;;;;;5.25;96.35;101289.75;7401622;19;20039;-72
2023/01/06 05:13:45;;;;;;;9.43;3.75;;;;;;;5.26;96.23;101283.69;7399896;19;20073;-72
2023/01/06 05:16:18;;;;;;;7.28;3.97;;;;;;;5.29;96.51;101285.44;7399396;19;20035;-73
2023/01/06 05:18:47;;;;;;;12.60;4.47;;;;;;;5.30;96.57;101282.00;7401781;19;20044;-72
2023/01/06 05:21:15;;;;;;;13.43;6.68;;;;;;;5.31;96.49;101273.34;7401064;19;20078;-72
2023/01/06 05:23:44;;;;;;;11.55;5.13;;;;;;;5.30;96.48;101277.66;7399394;19;20088;-72
2023/01/06 05:26:19;;;;;;;9.98;4.50;;;;;;;5.31;96.73;101274.19;7399346;19;20471;-72
2023/01/06 05:28:48;;;;;;;9.90;4.60;;;;;;;5.31;96.87;101274.19;7400734;19;20580;-73
2023/01/06 05:31:18;;;;;;;6.10;3.80;;;;;;;5.31;96.89;101274.19;7400772;19;20608;-72
2023/01/06 05:33:47;;;;;;;8.82;3.92;;;;;;;5.31;96.88;101270.72;7399314;19;20106;-72
2023/01/06 05:36:18;;;;;;;13.38;4.20;;;;;;;5.31;97.04;101270.72;7399067;19;20027;-73
2023/01/06 05:38:47;;;;;;;13.55;5.50;;;;;;;5.32;96.89;101267.25;7401027;19;20044;-73
2023/01/06 05:41:18;;;;;;;12.70;4.68;;;;;;;5.33;97.03;101269.00;7400078;19;20019;-73
2023/01/06 05:43:46;;;;;;;10.35;4.78;;;;;;;5.33;97.09;101271.59;7398768;19;20027;-73
2023/01/06 05:46:15;;;;;;;7.43;4.32;;;;;;;5.35;96.97;101265.53;7400953;19;20168;-73
2023/01/06 05:48:44;;;;;;;10.73;5.03;;;;;;;5.35;97.24;101268.16;7397817;19;20090;-73
2023/01/06 05:51:15;;;;;;;8.00;4.50;;;;;;;5.35;97.42;101260.34;7400750;19;20039;-75
2023/01/06 05:53:50;;;;;;;11.98;5.05;;;;;;;5.36;97.59;101250.81;7398155;19;20022;-73
2023/01/06 05:56:23;;;;;;;11.27;4.82;;;;;;;5.38;97.23;101262.97;7399006;19;20038;-75
2023/01/06 05:58:54;;;;;;;14.27;5.60;;;;;;;5.39;97.50;101262.09;7399969;19;20074;-72
2023/01/06 06:01:26;;;;;;;11.27;5.63;;;;;;;5.39;97.53;101256.03;7397094;19;20019;-72
2023/01/06 06:03:55;;;;;;;11.80;5.95;;;;;;;5.38;97.59;101252.56;7397440;19;20031;-73
2023/01/06 06:06:26;;;;;;;13.75;5.90;;;;;;;5.42;97.71;101260.38;7398675;19;20419;-73
2023/01/06 06:08:55;;;;;;;14.75;5.60;;;;;;;5.41;97.92;101254.34;7398823;19;20034;-74
2023/01/06 06:11:26;;;;;;;18.35;7.07;;;;;;;5.42;97.92;101245.66;7396156;19;20014;-73
2023/01/06 06:13:57;;;;;;;13.23;6.78;;;;;;;5.42;98.12;101249.97;7398441;19;20490;-71
2023/01/06 06:16:27;;;;;;;17.58;6.10;;;;;;;5.42;98.28;101253.47;7396311;19;20350;-73
2023/01/06 06:18:57;;;;;;;16.90;6.30;;;;;;;5.43;98.35;101252.59;7400038;19;20381;-72
2023/01/06 06:21:28;;;;;;;16.50;6.35;;;;;;;5.43;98.47;101256.94;7399273;19;20344;-73
2023/01/06 06:23:58;;;;;;;20.23;7.30;;;;;;;5.43;98.45;101260.41;7397458;19;20022;-73
2023/01/06 06:26:30;;;;;;;14.95;6.80;;;;;;;5.45;98.50;101257.81;7396396;19;20019;-72
2023/01/06 06:28:58;;;;;;;18.95;6.93;;;;;;;5.45;98.71;101244.81;7396731;19;20098;-73
2023/01/06 06:31:29;;;;;;;15.82;7.25;;;;;;;5.46;99.36;101233.53;7398974;19;20031;-73
2023/01/06 06:34:01;;;;;;;18.88;7.10;;;;;;;5.46;99.28;101231.81;7396038;19;20015;-73
2023/01/06 06:36:30;;;;;;;16.67;7.65;;;;;;;5.46;99.39;101228.31;7398523;19;20067;-70
2023/01/06 06:38:59;;;;;;;17.42;7.68;;;;;;;5.45;99.25;101224.84;7398489;19;20458;-73
2023/01/06 06:41:30;;;;;;;16.33;6.82;;;;;;;5.49;99.42;101226.63;7397926;19;20026;-73
2023/01/06 06:43:59;;;;;;;13.90;7.70;;;;;;;5.49;99.35;101231.81;7396626;19;20035;-73
2023/01/06 06:46:27;;;;;;;19.40;8.23;;;;;;;5.50;99.74;101228.34;7395867;19;20079;-73
2023/01/06 06:48:56;;;;;;;21.75;7.82;;;;;;;5.52;99.60;101225.75;7398096;19;20393;-73
2023/01/06 06:51:25;;;;;;;22.73;8.40;;;;;;;5.53;99.44;101227.50;7397748;19;20078;-73
2023/01/06 06:53:53;;;;;;;22.70;10.23;;;;;;;5.54;99.70;101216.25;7396458;19;20035;-73
2023/01/06 06:56:23;;;;;;;17.55;8.75;;;;;;;5.56;99.77;101222.34;7395786;19;20155;-73
2023/01/06 06:58:54;;;;;;;25.05;9.90;;;;;;;5.58;99.73;101214.53;7397800;19;20019;-73
2023/01/06 07:01:23;;;;;;;21.85;9.05;;;;;;;5.59;100.00;101216.28;7396306;19;20406;-74
2023/01/06 07:03:51;;;;;;;16.85;9.30;;;;;;;5.60;100.00;101213.69;7396012;19;20415;-72
2023/01/06 07:06:23;;;;;;;19.05;8.57;;;;;;;5.62;100.00;101211.09;7397956;19;20022;-72
2023/01/06 07:08:52;;;;;;;19.00;9.63;;;;;;;5.63;100.00;101205.88;7397746;19;20018;-73
2023/01/06 07:11:21;;;;;;;18.42;8.70;;;;;;;5.64;100.00;101207.63;7397204;19;20022;-73
2023/01/06 07:13:50;;;;;;;20.15;9.45;;;;;;;5.66;100.00;101211.13;7396044;19;20047;-73
2023/01/06 07:16:22;;;;;;;16.02;8.43;;;;;;;5.69;100.00;101208.53;7396324;19;20019;-73
2023/01/06 07:18:50;;;;;;;17.77;8.20;;;;;;;5.70;100.00;101204.22;7397207;19;20051;-73
2023/01/06 07:21:18;;;;;;;17.13;9.13;;;;;;;5.71;100.00;101205.91;7395638;19;20023;-73
2023/01/06 07:23:47;;;;;;;19.65;9.32;;;;;;;5.71;100.00;101187.69;7393757;19;20509;-73
2023/01/06 07:26:15;;;;;;;19.88;9.18;;;;;;;5.75;100.00;101197.28;7395579;19;20023;-74
2023/01/06 07:28:44;;;;;;;21.73;9.25;;;;;;;5.77;100.00;101195.53;7396238;19;20070;-73
2023/01/06 07:31:12;;;;;;;20.60;9.38;;;;;;;5.80;100.00;101197.28;7394221;19;20015;-73
2023/01/06 07:33:44;;;;;;;19.77;9.48;;;;;;;5.81;100.00;101199.03;7394895;19;20078;-73
2023/01/06 07:36:12;;;;;;;20.85;10.00;;;;;;;5.84;100.00;101201.69;7395487;19;20074;-73
2023/01/06 07:38:40;;;;;;;22.83;11.00;;;;;;;5.83;100.00;101195.56;7395661;19;20197;-74
2023/01/06 07:41:09;;;;;;;23.50;11.30;;;;;;;5.87;100.00;101202.53;7395419;19;20086;-73
2023/01/06 07:43:37;;;;;;;20.23;9.75;;;;;;;5.91;100.00;101199.97;7394860;19;20031;-73
2023/01/06 07:46:06;;;;;;;27.42;10.35;;;;;;;5.93;100.00;101214.72;7396073;19;20027;-73
2023/01/06 07:48:35;;;;;;;24.77;10.95;;;;;;;5.95;100.00;101215.63;7395786;19;20486;-73
2023/01/06 07:51:07;;;;;;;18.67;9.77;;;;;;;5.98;100.00;101200.03;7395768;19;20014;-72
2023/01/06 07:53:35;;;;;;;30.23;11.70;;;;;;;6.00;100.00;101200.91;7394770;19;20019;-72
2023/01/06 07:56:04;;;;;;;26.02;11.85;;;;;;;6.02;100.00;101195.72;7393470;19;20074;-72
2023/01/06 07:58:33;;;;;;;25.30;11.85;;;;;;;6.05;100.00;101174.00;7395678;19;20022;-73
2023/01/06 08:01:07;;;;;;;26.88;12.60;;;;;;;6.08;100.00;101190.53;7393614;19;20074;-73
2023/01/06 08:03:35;;;;;;;27.05;12.75;;;;;;;6.09;100.00;101200.09;7393121;19;20035;-72
2023/01/06 08:06:11;;;;;;;26.58;13.32;;;;;;;6.13;100.00;101203.56;7395187;19;20014;-73
2023/01/06 08:08:40;;;;;;;30.45;12.18;;;;;;;6.14;100.00;101208.78;7394859;19;20519;-73
2023/01/06 08:11:11;;;;;;;25.02;11.90;;;;;;;6.18;100.00;101212.28;7393127;19;20026;-72
2023/01/06 08:13:40;;;;;;;26.25;11.10;;;;;;;6.19;100.00;101203.56;7393536;19;20541;-72
2023/01/06 08:16:10;;;;;;;21.58;11.65;;;;;;;6.23;100.00;101197.53;7393859;19;20074;-73
2023/01/06 08:18:39;;;;;;;27.67;12.25;;;;;;;6.26;100.00;101189.72;7395176;19;20027;-73
2023/01/06 08:21:12;;;;;;;23.85;12.38;;;;;;;6.29;100.00;101178.44;7395002;19;20037;-73
2023/01/06 08:23:41;;;;;;;25.95;12.45;;;;;;;6.31;100.00;101164.53;7393359;19;20428;-73
2023/01/06 08:26:12;;;;;;;27.55;12.68;;;;;;;6.34;100.00;101156.75;7392608;19;20090;-73
2023/01/06 08:28:41;;;;;;;20.67;11.13;;;;;;;6.36;100.00;101160.19;7395126;19;20015;-72
2023/01/06 08:31:11;;;;;;;26.45;12.02;;;;;;;6.38;100.00;101156.72;7393936;19;20486;-72
2023/01/06 08:33:40;;;;;;;26.70;13.20;;;;;;;6.43;100.00;101160.22;7392747;19;20015;-72
2023/01/06 08:36:15;;;;;;;25.45;13.20;;;;;;;6.46;100.00;101163.72;7394195;19;20074;-73
2023/01/06 08:38:50;;;;;;;25.98;13.80;;;;;;;6.49;100.00;101168.06;7394475;19;20040;-73
2023/01/06 08:41:19;;;;;;;24.08;13.05;;;;;;;6.53;100.00;101172.41;7393144;19;20171;-74
2023/01/06 08:43:48;;;;;;;22.50;11.43;;;;;;;6.56;100.00;101163.72;7392721;19;20015;-73
2023/01/06 08:46:19;;;;;;;20.77;12.27;;;;;;;6.60;100.00;101168.09;7394309;19;20026;-73
2023/01/06 08:48:48;;;;;;;16.25;10.52;;;;;;;6.62;100.00;101161.13;7393803;19;20498;-74
2023/01/06 08:51:22;;;;;;;15.23;9.38;;;;;;;6.66;100.00;101161.13;7394087;19;20515;-73
2023/01/06 08:53:51;;;;;;;17.77;9.05;;;;;;;6.72;100.00;101159.41;7393103;19;20019;-74
2023/01/06 08:56:21;;;;;;;16.63;9.10;;;;;;;6.76;100.00;101161.13;7393581;19;20018;-73
2023/01/06 08:58:54;;;;;;;15.57;9.30;;;;;;;6.80;100.00;101170.72;7395404;19;20086;-73
2023/01/06 09:01:24;;;;;;;15.00;8.85;;;;;;;6.84;100.00;101167.22;7394089;19;20015;-73
2023/01/06 09:03:53;;;;;;;14.73;7.90;;;;;;;6.83;100.00;101153.31;7391587;19;20482;-73
2023/01/06 09:06:25;;;;;;;13.60;8.05;;;;;;;6.89;100.00;101162.88;7392926;19;20171;-72
2023/01/06 09:08:53;;;;;;;12.00;7.68;;;;;;;6.93;100.00;101166.38;7394172;19;20032;-72
2023/01/06 09:11:22;;;;;;;11.00;7.32;;;;;;;6.97;100.00;101162.88;7393514;19;20031;-73
2023/01/06 09:13:52;;;;;;;12.63;7.95;;;;;;;6.99;100.00;101159.41;7392228;19;20023;-73
2023/01/06 09:16:21;;;;;;;10.60;7.28;;;;;;;7.02;100.00;101161.13;7393221;19;20014;-73
2023/01/06 09:18:51;;;;;;;10.85;6.93;;;;;;;7.05;100.00;101165.50;7393470;19;20022;-73
2023/01/06 09:21:21;;;;;;;10.90;6.95;;;;;;;7.07;100.00;101164.63;7390845;19;20017;-73
2023/01/06 09:23:53;;;;;;;11.45;7.28;;;;;;;7.10;100.00;101164.63;7391547;19;20486;-73
2023/01/06 09:26:21;;;;;;;12.77;6.95;;;;;;;7.11;100.00;101162.88;7394080;19;20029;-73
2023/01/06 09:28:50;;;;;;;11.55;7.07;;;;;;;7.15;100.00;101168.09;7394730;19;20082;-74
2023/01/06 09:31:19;;;;;;;12.90;7.70;;;;;;;7.17;100.00;101163.72;7393427;19;20026;-73
2023/01/06 09:33:47;;;;;;;10.70;7.18;;;;;;;7.21;100.00;101163.75;7391796;19;20351;-72
2023/01/06 09:36:16;;;;;;;12.48;7.63;;;;;;;7.22;100.00;101166.34;7393345;19;20105;-73
2023/01/06 09:38:44;;;;;;;11.15;6.95;;;;;;;7.22;100.00;101155.91;7390739;19;20027;-73
2023/01/06 09:41:48;;;;;;;15.15;8.55;;;;;;;7.29;100.00;101160.25;7393511;19;20018;-73
2023/01/06 09:44:20;;;;;;;12.93;8.32;;;;;;;7.30;100.00;101164.63;7391212;19;20086;-73
2023/01/06 09:46:52;;;;;;;13.02;7.43;;;;;;;7.33;100.00;101153.28;7399679;19;20499;-73
2023/01/06 09:49:29;;;;;;;10.07;7.55;;;;;;;7.36;100.00;101149.81;7400648;19;20035;-73
2023/01/06 09:52:02;;;;;;;12.82;8.35;;;;;;;7.37;100.00;101143.69;7399609;19;20384;-73
2023/01/06 09:54:35;;;;;;;14.45;7.78;;;;;;;7.38;100.00;101148.94;7396688;19;20482;-74
2023/01/06 09:57:13;;;;;;;12.88;8.25;;;;;;;7.40;100.00;101141.09;7398734;19;20507;-72
2023/01/06 09:59:48;;;;;;;14.52;9.05;;;;;;;7.42;100.00;101129.78;7400576;19;20070;-69
2023/01/06 10:02:24;;;;;;;16.42;9.18;;;;;;;7.44;100.00;101122.81;7397846;19;20039;-72
2023/01/06 10:04:52;;;;;;;13.82;8.40;;;;;;;7.47;100.00;101122.78;7396641;19;20035;-71
2023/01/06 10:07:27;;;;;;;13.85;8.43;;;;;;;7.50;100.00;101111.47;7399815;19;20425;-72
2023/01/06 10:10:11;;;;;;;11.75;7.90;;;;;;;7.53;100.00;101111.44;7400505;19;20031;-72
2023/01/06 10:12:52;;;;;;;12.37;8.73;;;;;;;7.56;100.00;101111.44;7398791;19;20036;-71
2023/01/06 10:15:31;;;;;;;12.98;8.35;;;;;;;7.61;100.00;101104.47;7398711;19;20461;-71
2023/01/06 10:18:11;;;;;;;15.30;8.45;;;;;;;7.64;100.00;101091.38;7397560;19;20026;-71
2023/01/06 10:21:04;;;;;;;11.18;7.88;;;;;;;7.70;100.00;101087.91;7398804;19;20171;-71
2023/01/06 10:24:17;;;;;;;10.05;7.30;;;;;;;7.71;100.00;101066.13;7396971;19;20501;-71
2023/01/06 10:27:04;;;;;;;13.55;8.05;;;;;;;7.79;100.00;101068.72;7398138;19;20024;-71
2023/01/06 10:29:39;;;;;;;12.93;8.65;;;;;;;7.83;100.00;101067.81;7399625;19;20472;-71
2023/01/06 10:32:16;;;;;;;11.85;8.52;;;;;;;7.88;100.00;101066.03;7399259;19;20077;-71
2023/01/06 10:34:47;;;;;;;11.68;7.35;;;;;;;7.91;100.00;101055.59;7395785;19;20499;-70
2023/01/06 10:37:22;;;;;;;13.52;7.93;;;;;;;7.98;100.00;101062.50;7398541;19;20022;-70
2023/01/06 10:39:55;;;;;;;10.45;7.85;;;;;;;8.03;100.00;101054.63;7396656;19;20400;-70
2023/01/06 10:45:19;;;;;;;13.18;8.43;;;;;;;8.13;100.00;101056.31;7398093;19;20018;-70
2023/01/06 10:47:47;;;;;;;13.30;8.05;;;;;;;8.20;100.00;101057.16;7398873;19;20014;-69
2023/01/06 10:50:18;;;;;;;11.00;7.28;;;;;;;8.25;100.00;101060.59;7398141;19;20078;-69
2023/01/06 10:52:47;;;;;;;12.35;7.60;;;;;;;8.30;100.00;101052.69;7397916;19;20039;-70
2023/01/06 10:55:29;;;;;;;15.45;8.48;;;;;;;8.35;100.00;101047.44;7398009;19;20035;-70
2023/01/06 10:58:02;;;;;;;11.98;8.10;;;;;;;8.39;100.00;101043.91;7393198;19;20526;-69
2023/01/06 11:00:33;;;;;;;11.52;8.02;;;;;;;8.42;100.00;101043.91;7397497;19;20018;-70
2023/01/06 11:03:06;;;;;;;10.60;6.82;;;;;;;8.47;100.00;101042.16;7397036;19;20031;-71
2023/01/06 11:05:37;;;;;;;11.02;7.15;;;;;;;8.52;100.00;101048.22;7397343;19;20018;-69
2023/01/06 11:08:09;;;;;;;9.15;6.60;;;;;;;8.56;100.00;101039.47;7397549;19;20014;-69
2023/01/06 11:10:40;;;;;;;11.40;7.50;;;;;;;8.62;100.00;101042.03;7397523;19;20086;-69
2023/01/06 11:13:20;;;;;;;8.05;6.53;;;;;;;8.66;100.00;101031.50;7396603;19;20014;-69
2023/01/06 11:15:52;;;;;;;10.88;7.25;;;;;;;8.70;100.00;101025.41;7397469;19;20015;-69
2023/01/06 11:18:24;;;;;;;8.70;6.20;;;;;;;8.73;100.00;101027.97;7396478;19;20454;-69
2023/01/06 11:21:08;;;;;;;13.40;6.13;;;;;;;8.76;100.00;101038.44;7398339;19;20018;-70
2023/01/06 11:23:37;;;;;;;7.47;6.13;;;;;;;8.80;100.00;101032.28;7395868;19;20019;-70
2023/01/06 11:26:16;;;;;;;10.43;6.57;;;;;;;8.81;100.00;101034.00;7396213;19;20014;-69
2023/01/06 11:28:55;;;;;;;8.73;6.43;;;;;;;8.84;100.00;101028.72;7393937;19;20182;-69
2023/01/06 11:31:29;;;;;;;7.95;5.22;;;;;;;8.85;100.00;101027.84;7397172;19;20077;-70
2023/01/06 11:34:00;;;;;;;6.97;5.60;;;;;;;8.88;100.00;101025.19;7395058;19;20022;-71
2023/01/06 11:36:31;;;;;;;8.20;5.78;;;;;;;8.88;100.00;101017.34;7396118;19;20085;-70
2023/01/06 11:39:02;;;;;;;6.55;4.82;;;;;;;8.88;100.00;101004.25;7394775;19;20087;-71
2023/01/06 11:41:37;;;;;;;6.95;4.70;;;;;;;8.90;100.00;101012.97;7396217;19;20083;-69
2023/01/06 11:44:10;;;;;;;7.18;4.60;;;;;;;8.92;100.00;101013.84;7395473;19;20078;-68
2023/01/06 11:46:49;;;;;;;7.68;4.38;;;;;;;8.93;100.00;101012.97;7396552;19;20449;-70
2023/01/06 11:49:25;;;;;;;6.55;4.75;;;;;;;8.95;100.00;101007.72;7396247;19;20018;-68
2023/01/06 11:52:01;;;;;;;6.53;3.63;;;;;;;8.96;100.00;101004.22;7396762;19;20022;-69
2023/01/06 11:54:36;;;;;;;6.97;4.07;;;;;;;8.96;100.00;100998.97;7396964;19;20027;-66
2023/01/06 11:57:19;;;;;;;3.90;3.22;;;;;;;8.96;100.00;101001.59;7396765;19;20082;-67
2023/01/06 12:00:01;;;;;;;5.43;3.22;;;;;;;8.97;100.00;101003.31;7396302;19;20032;-67